sensor_id;sensor_type;location;lat;lon;timestamp;temperature;humidity
20858;DHT22;10589;53.636;10.012;2024-02-26T04:46:13;0.90;99.90
20858;DHT22;10589;53.636;10.012;2024-02-26T04:48:40;0.80;99.90
20858;DHT22;10589;53.636;10.012;2024-02-26T04:51:07;0.80;99.90
20858;DHT22;10589;53.636;10.012;2024-02-26T04:53:33;0.70;99.90
20858;DHT22;10589;53.636;10.012;2024-02-26T04:55:59;0.60;99.90
20858;DHT22;10589;53.636;10.012;2024-02-26T04:58:24;0.50;99.90
20858;DHT22;10589;53.636;10.012;2024-02-26T05:00:50;0.50;99.90
20858;DHT22;10589;53.636;10.012;2024-02-26T05:03:15;0.40;99.90
20858;DHT22;10589;53.636;10.012;2024-02-26T05:05:43;0.30;99.90
20858;DHT22;10589;53.636;10.012;2024-02-26T05:08:08;0.20;99.90
20858;DHT22;10589;53.636;10.012;2024-02-26T05:10:34;0.10;99.90
20858;DHT22;10589;53.636;10.012;2024-02-26T05:13:04;0.10;99.90
20858;DHT22;10589;53.636;10.012;2024-02-26T05:15:30;0.00;99.90
20858;DHT22;10589;53.636;10.012;2024-02-26T05:17:55;0.00;99.90
20858;DHT22;10589;53.636;10.012;2024-02-26T05:20:21;0.00;99.90
20858;DHT22;10589;53.636;10.012;2024-02-26T05:22:47;0.00;99.90
20858;DHT22;10589;53.636;10.012;2024-02-26T05:25:14;0.10;99.90
20858;DHT22;10589;53.636;10.012;2024-02-26T05:27:41;0.10;99.90
20858;DHT22;10589;53.636;10.012;2024-02-26T05:30:07;0.10;99.90
20858;DHT22;10589;53.636;10.012;2024-02-26T05:32:32;0.20;99.90
20858;DHT22;10589;53.636;10.012;2024-02-26T05:34:58;0.30;99.90
20858;DHT22;10589;53.636;10.012;2024-02-26T05:37:24;0.30;99.90
20858;DHT22;10589;53.636;10.012;2024-02-26T05:39:49;0.50;99.90
20858;DHT22;10589;53.636;10.012;2024-02-26T05:42:15;0.40;99.90
20858;DHT22;10589;53.636;10.012;2024-02-26T05:44:41;0.40;99.90
20858;DHT22;10589;53.636;10.012;2024-02-26T05:47:06;0.30;99.90
20858;DHT22;10589;53.636;10.012;2024-02-26T05:49:32;0.20;99.90
20858;DHT22;10589;53.636;10.012;2024-02-26T05:51:58;0.10;99.90
20858;DHT22;10589;53.636;10.012;2024-02-26T05:54:24;0.10;99.90
20858;DHT22;10589;53.636;10.012;2024-02-26T05:56:50;0.10;99.90
20858;DHT22;10589;53.636;10.012;2024-02-26T05:59:15;0.10;99.90
20858;DHT22;10589;53.636;10.012;2024-02-26T06:01:41;0.00;99.90
20858;DHT22;10589;53.636;10.012;2024-02-26T06:04:07;0.00;99.90
20858;DHT22;10589;53.636;10.012;2024-02-26T06:06:32;0.00;99.90
20858;DHT22;10589;53.636;10.012;2024-02-26T06:08:58;0.00;99.90
20858;DHT22;10589;53.636;10.012;2024-02-26T06:11:23;0.00;99.90
20858;DHT22;10589;53.636;10.012;2024-02-26T06:13:49;0.00;99.90
20858;DHT22;10589;53.636;10.012;2024-02-26T06:16:15;0.00;99.90
20858;DHT22;10589;53.636;10.012;2024-02-26T06:18:41;0.00;99.90
20858;DHT22;10589;53.636;10.012;2024-02-26T06:21:09;0.00;99.90
20858;DHT22;10589;53.636;10.012;2024-02-26T06:23:35;0.10;99.90
20858;DHT22;10589;53.636;10.012;2024-02-26T06:26:01;0.30;99.90
20858;DHT22;10589;53.636;10.012;2024-02-26T06:28:27;0.50;99.90
20858;DHT22;10589;53.636;10.012;2024-02-26T06:30:55;0.50;99.90
20858;DHT22;10589;53.636;10.012;2024-02-26T06:33:21;0.60;99.90
20858;DHT22;10589;53.636;10.012;2024-02-26T06:35:47;0.70;99.90
20858;DHT22;10589;53.636;10.012;2024-02-26T06:38:13;0.70;99.90
20858;DHT22;10589;53.636;10.012;2024-02-26T06:40:39;0.80;99.90
20858;DHT22;10589;53.636;10.012;2024-02-26T06:43:05;0.80;99.90
20858;DHT22;10589;53.636;10.012;2024-02-26T06:45:31;0.90;99.90
20858;DHT22;10589;53.636;10.012;2024-02-26T06:47:56;0.90;99.90
20858;DHT22;10589;53.636;10.012;2024-02-26T06:50:22;1.00;99.90
20858;DHT22;10589;53.636;10.012;2024-02-26T06:52:48;1.00;99.90
20858;DHT22;10589;53.636;10.012;2024-02-26T06:55:14;1.00;99.90
20858;DHT22;10589;53.636;10.012;2024-02-26T06:57:39;1.10;99.90
20858;DHT22;10589;53.636;10.012;2024-02-26T07:00:05;1.10;99.90
20858;DHT22;10589;53.636;10.012;2024-02-26T07:02:31;1.20;99.90
20858;DHT22;10589;53.636;10.012;2024-02-26T07:04:57;1.20;99.90
20858;DHT22;10589;53.636;10.012;2024-02-26T07:07:24;1.20;99.90
20858;DHT22;10589;53.636;10.012;2024-02-26T07:09:50;1.30;99.90
20858;DHT22;10589;53.636;10.012;2024-02-26T07:12:15;1.30;99.90
20858;DHT22;10589;53.636;10.012;2024-02-26T07:14:41;1.30;99.90
20858;DHT22;10589;53.636;10.012;2024-02-26T07:17:07;1.30;99.90
20858;DHT22;10589;53.636;10.012;2024-02-26T07:19:34;1.30;99.90
20858;DHT22;10589;53.636;10.012;2024-02-26T07:21:59;1.30;99.90
20858;DHT22;10589;53.636;10.012;2024-02-26T07:24:27;1.30;99.90
20858;DHT22;10589;53.636;10.012;2024-02-26T07:26:53;1.30;99.90
20858;DHT22;10589;53.636;10.012;2024-02-26T07:29:20;1.40;99.90
20858;DHT22;10589;53.636;10.012;2024-02-26T07:31:47;1.40;99.90
20858;DHT22;10589;53.636;10.012;2024-02-26T07:34:12;1.40;99.90
20858;DHT22;10589;53.636;10.012;2024-02-26T07:36:38;1.30;99.90
20858;DHT22;10589;53.636;10.012;2024-02-26T07:39:04;1.40;99.90
20858;DHT22;10589;53.636;10.012;2024-02-26T07:41:30;1.40;99.90
20858;DHT22;10589;53.636;10.012;2024-02-26T07:43:56;1.40;99.90
20858;DHT22;10589;53.636;10.012;2024-02-26T07:46:21;1.40;99.90
20858;DHT22;10589;53.636;10.012;2024-02-26T07:48:47;1.40;99.90
20858;DHT22;10589;53.636;10.012;2024-02-26T07:51:13;1.30;99.90
20858;DHT22;10589;53.636;10.012;2024-02-26T07:53:39;1.30;99.90
20858;DHT22;10589;53.636;10.012;2024-02-26T07:56:05;1.40;99.90
20858;DHT22;10589;53.636;10.012;2024-02-26T07:58:32;1.40;99.90
20858;DHT22;10589;53.636;10.012;2024-02-26T08:00:58;1.50;99.90
20858;DHT22;10589;53.636;10.012;2024-02-26T08:03:24;1.60;99.90
20858;DHT22;10589;53.636;10.012;2024-02-26T08:05:51;1.60;99.90
20858;DHT22;10589;53.636;10.012;2024-02-26T08:08:17;1.60;99.90
20858;DHT22;10589;53.636;10.012;2024-02-26T08:10:43;1.60;99.90
20858;DHT22;10589;53.636;10.012;2024-02-26T08:13:08;1.70;99.90
20858;DHT22;10589;53.636;10.012;2024-02-26T08:15:35;1.60;99.90
20858;DHT22;10589;53.636;10.012;2024-02-26T08:18:01;1.60;99.90
20858;DHT22;10589;53.636;10.012;2024-02-26T08:20:30;1.60;99.90
20858;DHT22;10589;53.636;10.012;2024-02-26T08:22:56;1.60;99.90
20858;DHT22;10589;53.636;10.012;2024-02-26T08:25:22;1.70;99.90
20858;DHT22;10589;53.636;10.012;2024-02-26T08:27:48;1.90;99.90
20858;DHT22;10589;53.636;10.012;2024-02-26T08:30:15;2.00;99.90
20858;DHT22;10589;53.636;10.012;2024-02-26T08:32:51;2.00;99.90
20858;DHT22;10589;53.636;10.012;2024-02-26T08:35:17;2.10;99.90
20858;DHT22;10589;53.636;10.012;2024-02-26T08:37:47;2.10;99.90
20858;DHT22;10589;53.636;10.012;2024-02-26T08:40:13;2.20;99.90
20858;DHT22;10589;53.636;10.012;2024-02-26T08:42:39;2.20;99.90
20858;DHT22;10589;53.636;10.012;2024-02-26T08:45:05;2.20;99.90
20858;DHT22;10589;53.636;10.012;2024-02-26T08:47:32;2.20;99.90
20858;DHT22;10589;53.636;10.012;2024-02-26T08:49:58;2.30;99.90
20858;DHT22;10589;53.636;10.012;2024-02-26T08:52:23;2.40;99.90
20858;DHT22;10589;53.636;10.012;2024-02-26T08:54:49;2.50;99.90
20858;DHT22;10589;53.636;10.012;2024-02-26T08:57:15;2.50;99.90
20858;DHT22;10589;53.636;10.012;2024-02-26T08:59:41;2.50;99.90
20858;DHT22;10589;53.636;10.012;2024-02-26T09:02:07;2.60;99.90
20858;DHT22;10589;53.636;10.012;2024-02-26T09:04:34;2.60;99.90
20858;DHT22;10589;53.636;10.012;2024-02-26T09:07:01;2.80;99.90
20858;DHT22;10589;53.636;10.012;2024-02-26T09:09:27;2.80;99.90
20858;DHT22;10589;53.636;10.012;2024-02-26T09:11:53;2.70;99.90
20858;DHT22;10589;53.636;10.012;2024-02-26T09:14:20;2.80;99.90
20858;DHT22;10589;53.636;10.012;2024-02-26T09:16:46;2.90;99.90
20858;DHT22;10589;53.636;10.012;2024-02-26T09:19:14;2.80;99.90
20858;DHT22;10589;53.636;10.012;2024-02-26T09:21:46;3.00;99.90
20858;DHT22;10589;53.636;10.012;2024-02-26T09:24:12;3.10;99.90
20858;DHT22;10589;53.636;10.012;2024-02-26T09:26:38;3.20;99.90
20858;DHT22;10589;53.636;10.012;2024-02-26T09:29:04;3.20;99.90
20858;DHT22;10589;53.636;10.012;2024-02-26T09:31:30;3.30;99.90
20858;DHT22;10589;53.636;10.012;2024-02-26T09:33:56;3.30;99.90
20858;DHT22;10589;53.636;10.012;2024-02-26T09:36:21;3.30;99.90
20858;DHT22;10589;53.636;10.012;2024-02-26T09:38:48;3.40;99.90
20858;DHT22;10589;53.636;10.012;2024-02-26T09:41:16;3.40;99.90
20858;DHT22;10589;53.636;10.012;2024-02-26T09:43:45;3.50;99.90
20858;DHT22;10589;53.636;10.012;2024-02-26T09:46:11;3.50;99.90
20858;DHT22;10589;53.636;10.012;2024-02-26T09:48:38;3.50;99.90
20858;DHT22;10589;53.636;10.012;2024-02-26T09:51:04;3.60;99.90
20858;DHT22;10589;53.636;10.012;2024-02-26T09:53:30;3.60;99.90
20858;DHT22;10589;53.636;10.012;2024-02-26T09:56:00;3.60;99.90
20858;DHT22;10589;53.636;10.012;2024-02-26T09:58:28;3.60;99.90
20858;DHT22;10589;53.636;10.012;2024-02-26T10:00:56;3.60;99.90
20858;DHT22;10589;53.636;10.012;2024-02-26T10:03:30;3.60;99.90
20858;DHT22;10589;53.636;10.012;2024-02-26T10:05:56;3.60;99.90
20858;DHT22;10589;53.636;10.012;2024-02-26T10:08:24;3.60;99.90
20858;DHT22;10589;53.636;10.012;2024-02-26T10:10:50;3.60;99.90
20858;DHT22;10589;53.636;10.012;2024-02-26T10:13:16;3.70;99.90
20858;DHT22;10589;53.636;10.012;2024-02-26T10:15:41;3.80;99.90
20858;DHT22;10589;53.636;10.012;2024-02-26T10:18:07;3.80;99.90
20858;DHT22;10589;53.636;10.012;2024-02-26T10:20:33;3.80;99.90
20858;DHT22;10589;53.636;10.012;2024-02-26T10:23:03;4.00;99.90
20858;DHT22;10589;53.636;10.012;2024-02-26T10:25:30;4.10;99.90
20858;DHT22;10589;53.636;10.012;2024-02-26T10:28:00;4.10;99.90
20858;DHT22;10589;53.636;10.012;2024-02-26T10:30:28;4.30;99.90
20858;DHT22;10589;53.636;10.012;2024-02-26T10:32:56;4.40;99.90
20858;DHT22;10589;53.636;10.012;2024-02-26T10:35:22;4.40;99.90
20858;DHT22;10589;53.636;10.012;2024-02-26T10:37:48;4.40;99.90
20858;DHT22;10589;53.636;10.012;2024-02-26T10:40:15;4.50;99.90
20858;DHT22;10589;53.636;10.012;2024-02-26T10:42:41;4.50;99.90
20858;DHT22;10589;53.636;10.012;2024-02-26T10:45:08;4.60;99.90
20858;DHT22;10589;53.636;10.012;2024-02-26T10:47:35;4.70;99.90
20858;DHT22;10589;53.636;10.012;2024-02-26T10:50:05;4.80;99.90
20858;DHT22;10589;53.636;10.012;2024-02-26T10:52:36;4.90;99.90
20858;DHT22;10589;53.636;10.012;2024-02-26T10:55:04;5.10;99.90
20858;DHT22;10589;53.636;10.012;2024-02-26T10:57:40;5.20;99.90
20858;DHT22;10589;53.636;10.012;2024-02-26T11:00:08;5.10;99.90
20858;DHT22;10589;53.636;10.012;2024-02-26T11:02:38;5.20;99.90
20858;DHT22;10589;53.636;10.012;2024-02-26T11:05:06;5.30;99.90
20858;DHT22;10589;53.636;10.012;2024-02-26T11:07:34;5.40;99.90
20858;DHT22;10589;53.636;10.012;2024-02-26T11:10:01;5.60;99.90
20858;DHT22;10589;53.636;10.012;2024-02-26T11:12:32;5.60;99.90
20858;DHT22;10589;53.636;10.012;2024-02-26T11:14:59;5.70;99.90
20858;DHT22;10589;53.636;10.012;2024-02-26T11:17:27;5.80;99.90
20858;DHT22;10589;53.636;10.012;2024-02-26T11:19:57;5.90;99.90
20858;DHT22;10589;53.636;10.012;2024-02-26T11:22:27;6.10;99.90
20858;DHT22;10589;53.636;10.012;2024-02-26T11:24:54;6.40;99.90
20858;DHT22;10589;53.636;10.012;2024-02-26T11:27:26;6.50;99.90
20858;DHT22;10589;53.636;10.012;2024-02-26T11:29:56;6.50;99.90
20858;DHT22;10589;53.636;10.012;2024-02-26T11:32:26;6.50;99.90
20858;DHT22;10589;53.636;10.012;2024-02-26T11:34:53;6.70;99.90
20858;DHT22;10589;53.636;10.012;2024-02-26T11:37:19;6.60;99.90
20858;DHT22;10589;53.636;10.012;2024-02-26T11:39:46;6.70;99.90
20858;DHT22;10589;53.636;10.012;2024-02-26T11:42:15;6.80;99.90
20858;DHT22;10589;53.636;10.012;2024-02-26T11:44:41;6.80;99.90
20858;DHT22;10589;53.636;10.012;2024-02-26T11:47:18;7.00;99.90
20858;DHT22;10589;53.636;10.012;2024-02-26T11:49:44;7.10;99.90
20858;DHT22;10589;53.636;10.012;2024-02-26T11:52:10;7.10;99.90
20858;DHT22;10589;53.636;10.012;2024-02-26T11:54:56;7.10;99.90
20858;DHT22;10589;53.636;10.012;2024-02-26T11:57:29;7.00;99.90
20858;DHT22;10589;53.636;10.012;2024-02-26T11:59:56;7.00;99.90
20858;DHT22;10589;53.636;10.012;2024-02-26T12:02:41;7.00;99.90
20858;DHT22;10589;53.636;10.012;2024-02-26T12:05:12;7.00;99.90
20858;DHT22;10589;53.636;10.012;2024-02-26T12:07:55;6.90;99.90
20858;DHT22;10589;53.636;10.012;2024-02-26T12:10:26;6.80;99.90
20858;DHT22;10589;53.636;10.012;2024-02-26T12:12:59;6.90;99.90
20858;DHT22;10589;53.636;10.012;2024-02-26T12:15:31;6.90;99.90
20858;DHT22;10589;53.636;10.012;2024-02-26T12:17:58;6.80;99.90
20858;DHT22;10589;53.636;10.012;2024-02-26T12:20:25;6.80;99.90
20858;DHT22;10589;53.636;10.012;2024-02-26T12:22:51;6.80;99.90
20858;DHT22;10589;53.636;10.012;2024-02-26T12:25:21;6.80;99.90
20858;DHT22;10589;53.636;10.012;2024-02-26T12:27:47;6.80;99.90
20858;DHT22;10589;53.636;10.012;2024-02-26T12:30:13;6.80;99.90
20858;DHT22;10589;53.636;10.012;2024-02-26T12:32:38;6.70;99.90
20858;DHT22;10589;53.636;10.012;2024-02-26T12:35:05;6.50;99.90
20858;DHT22;10589;53.636;10.012;2024-02-26T12:37:32;6.50;99.90
20858;DHT22;10589;53.636;10.012;2024-02-26T12:39:57;6.50;99.90
20858;DHT22;10589;53.636;10.012;2024-02-26T12:42:23;6.40;99.90
20858;DHT22;10589;53.636;10.012;2024-02-26T12:44:50;6.50;99.90
20858;DHT22;10589;53.636;10.012;2024-02-26T12:47:17;6.50;99.90
20858;DHT22;10589;53.636;10.012;2024-02-26T12:49:47;6.50;99.90
20858;DHT22;10589;53.636;10.012;2024-02-26T12:52:13;6.60;99.90
20858;DHT22;10589;53.636;10.012;2024-02-26T12:54:39;6.70;99.90
20858;DHT22;10589;53.636;10.012;2024-02-26T12:57:06;6.70;99.90
20858;DHT22;10589;53.636;10.012;2024-02-26T12:59:34;6.80;99.90
20858;DHT22;10589;53.636;10.012;2024-02-26T13:02:01;6.80;99.90
20858;DHT22;10589;53.636;10.012;2024-02-26T13:04:29;6.90;99.90
20858;DHT22;10589;53.636;10.012;2024-02-26T13:06:55;6.80;99.90
20858;DHT22;10589;53.636;10.012;2024-02-26T13:09:26;6.70;99.90
20858;DHT22;10589;53.636;10.012;2024-02-26T13:11:55;6.80;99.90
20858;DHT22;10589;53.636;10.012;2024-02-26T13:14:21;6.80;99.90
20858;DHT22;10589;53.636;10.012;2024-02-26T13:17:05;6.80;99.90
20858;DHT22;10589;53.636;10.012;2024-02-26T13:19:31;6.80;99.90
20858;DHT22;10589;53.636;10.012;2024-02-26T13:22:06;6.80;99.90
20858;DHT22;10589;53.636;10.012;2024-02-26T13:24:35;7.00;99.90
20858;DHT22;10589;53.636;10.012;2024-02-26T13:27:02;7.20;99.90
20858;DHT22;10589;53.636;10.012;2024-02-26T13:29:30;7.30;99.90
20858;DHT22;10589;53.636;10.012;2024-02-26T13:31:57;7.30;99.90
20858;DHT22;10589;53.636;10.012;2024-02-26T13:34:27;7.30;99.90
20858;DHT22;10589;53.636;10.012;2024-02-26T13:36:56;7.30;99.90
20858;DHT22;10589;53.636;10.012;2024-02-26T13:39:26;7.40;99.90
20858;DHT22;10589;53.636;10.012;2024-02-26T13:41:52;7.30;99.90
20858;DHT22;10589;53.636;10.012;2024-02-26T13:44:19;7.20;99.90
20858;DHT22;10589;53.636;10.012;2024-02-26T13:46:45;7.20;99.90
20858;DHT22;10589;53.636;10.012;2024-02-26T13:49:11;7.40;99.90
20858;DHT22;10589;53.636;10.012;2024-02-26T13:51:37;7.40;99.90
20858;DHT22;10589;53.636;10.012;2024-02-26T13:54:03;7.30;99.90
20858;DHT22;10589;53.636;10.012;2024-02-26T13:56:29;7.20;99.90
20858;DHT22;10589;53.636;10.012;2024-02-26T13:58:55;7.20;99.90
20858;DHT22;10589;53.636;10.012;2024-02-26T14:01:21;7.40;99.90
20858;DHT22;10589;53.636;10.012;2024-02-26T14:03:46;7.60;99.90
20858;DHT22;10589;53.636;10.012;2024-02-26T14:06:12;7.60;99.90
20858;DHT22;10589;53.636;10.012;2024-02-26T14:08:38;7.50;99.90
20858;DHT22;10589;53.636;10.012;2024-02-26T14:11:03;7.50;99.90
20858;DHT22;10589;53.636;10.012;2024-02-26T14:13:29;7.70;99.90
20858;DHT22;10589;53.636;10.012;2024-02-26T14:15:54;7.70;99.90
20858;DHT22;10589;53.636;10.012;2024-02-26T14:18:20;7.60;99.90
20858;DHT22;10589;53.636;10.012;2024-02-26T14:20:46;7.80;99.90
20858;DHT22;10589;53.636;10.012;2024-02-26T14:23:11;7.80;99.90
20858;DHT22;10589;53.636;10.012;2024-02-26T14:25:37;7.80;99.90
20858;DHT22;10589;53.636;10.012;2024-02-26T14:28:03;7.80;99.90
20858;DHT22;10589;53.636;10.012;2024-02-26T14:30:29;7.70;99.90
20858;DHT22;10589;53.636;10.012;2024-02-26T14:32:55;7.50;99.90
20858;DHT22;10589;53.636;10.012;2024-02-26T14:35:20;7.50;99.90
20858;DHT22;10589;53.636;10.012;2024-02-26T14:37:46;7.40;99.90
20858;DHT22;10589;53.636;10.012;2024-02-26T14:40:13;7.30;99.90
20858;DHT22;10589;53.636;10.012;2024-02-26T14:42:40;7.30;99.90
20858;DHT22;10589;53.636;10.012;2024-02-26T14:45:06;7.30;99.90
20858;DHT22;10589;53.636;10.012;2024-02-26T14:47:37;7.30;99.90
20858;DHT22;10589;53.636;10.012;2024-02-26T14:50:03;7.30;99.90
20858;DHT22;10589;53.636;10.012;2024-02-26T14:52:29;7.50;99.90
20858;DHT22;10589;53.636;10.012;2024-02-26T14:54:55;7.50;99.90
20858;DHT22;10589;53.636;10.012;2024-02-26T14:57:20;7.70;99.90
20858;DHT22;10589;53.636;10.012;2024-02-26T14:59:47;7.60;99.90
20858;DHT22;10589;53.636;10.012;2024-02-26T15:02:13;7.50;99.90
20858;DHT22;10589;53.636;10.012;2024-02-26T15:04:39;7.20;99.90
20858;DHT22;10589;53.636;10.012;2024-02-26T15:07:05;7.00;99.90
20858;DHT22;10589;53.636;10.012;2024-02-26T15:09:31;6.80;99.90
20858;DHT22;10589;53.636;10.012;2024-02-26T15:11:56;6.70;99.90
20858;DHT22;10589;53.636;10.012;2024-02-26T15:14:23;6.60;99.90
20858;DHT22;10589;53.636;10.012;2024-02-26T15:16:49;6.50;99.90
20858;DHT22;10589;53.636;10.012;2024-02-26T15:19:14;6.40;99.90
20858;DHT22;10589;53.636;10.012;2024-02-26T15:21:44;6.30;99.90
20858;DHT22;10589;53.636;10.012;2024-02-26T15:24:10;6.20;99.90
20858;DHT22;10589;53.636;10.012;2024-02-26T15:26:37;6.20;99.90
20858;DHT22;10589;53.636;10.012;2024-02-26T15:29:03;6.20;99.90
20858;DHT22;10589;53.636;10.012;2024-02-26T15:31:28;6.10;99.90
20858;DHT22;10589;53.636;10.012;2024-02-26T15:33:54;6.10;99.90
20858;DHT22;10589;53.636;10.012;2024-02-26T15:36:20;6.10;99.90
20858;DHT22;10589;53.636;10.012;2024-02-26T15:38:45;6.00;99.90
20858;DHT22;10589;53.636;10.012;2024-02-26T15:41:12;6.00;99.90
20858;DHT22;10589;53.636;10.012;2024-02-26T15:43:38;6.00;99.90
20858;DHT22;10589;53.636;10.012;2024-02-26T15:46:03;5.90;99.90
20858;DHT22;10589;53.636;10.012;2024-02-26T15:48:30;5.90;99.90
20858;DHT22;10589;53.636;10.012;2024-02-26T15:50:56;5.80;99.90
20858;DHT22;10589;53.636;10.012;2024-02-26T15:53:21;5.80;99.90
20858;DHT22;10589;53.636;10.012;2024-02-26T15:55:47;5.80;99.90
20858;DHT22;10589;53.636;10.012;2024-02-26T15:58:12;5.70;99.90
20858;DHT22;10589;53.636;10.012;2024-02-26T16:00:42;5.70;99.90
20858;DHT22;10589;53.636;10.012;2024-02-26T16:03:08;5.70;99.90
20858;DHT22;10589;53.636;10.012;2024-02-26T16:05:34;5.60;99.90
20858;DHT22;10589;53.636;10.012;2024-02-26T16:08:10;5.60;99.90
20858;DHT22;10589;53.636;10.012;2024-02-26T16:10:37;5.60;99.90
20858;DHT22;10589;53.636;10.012;2024-02-26T16:13:05;5.50;99.90
20858;DHT22;10589;53.636;10.012;2024-02-26T16:15:31;5.40;99.90
20858;DHT22;10589;53.636;10.012;2024-02-26T16:17:58;5.40;99.90
20858;DHT22;10589;53.636;10.012;2024-02-26T16:20:25;5.40;99.90
20858;DHT22;10589;53.636;10.012;2024-02-26T16:22:54;5.30;99.90
20858;DHT22;10589;53.636;10.012;2024-02-26T16:25:20;5.30;99.90
20858;DHT22;10589;53.636;10.012;2024-02-26T16:27:46;5.20;99.90
20858;DHT22;10589;53.636;10.012;2024-02-26T16:30:12;5.20;99.90
20858;DHT22;10589;53.636;10.012;2024-02-26T16:32:39;5.10;99.90
20858;DHT22;10589;53.636;10.012;2024-02-26T16:35:06;5.20;99.90
20858;DHT22;10589;53.636;10.012;2024-02-26T16:37:33;5.20;99.90
20858;DHT22;10589;53.636;10.012;2024-02-26T16:40:00;5.20;99.90
20858;DHT22;10589;53.636;10.012;2024-02-26T16:42:26;5.20;99.90
20858;DHT22;10589;53.636;10.012;2024-02-26T16:44:52;5.10;99.90
20858;DHT22;10589;53.636;10.012;2024-02-26T16:47:18;5.10;99.90
20858;DHT22;10589;53.636;10.012;2024-02-26T16:49:44;5.10;99.90
20858;DHT22;10589;53.636;10.012;2024-02-26T16:52:11;5.10;99.90
20858;DHT22;10589;53.636;10.012;2024-02-26T16:54:37;5.10;99.90
20858;DHT22;10589;53.636;10.012;2024-02-26T16:57:03;5.00;99.90
20858;DHT22;10589;53.636;10.012;2024-02-26T16:59:28;5.00;99.90
20858;DHT22;10589;53.636;10.012;2024-02-26T17:01:54;5.00;99.90
20858;DHT22;10589;53.636;10.012;2024-02-26T17:04:22;4.90;99.90
20858;DHT22;10589;53.636;10.012;2024-02-26T17:06:48;4.80;99.90
20858;DHT22;10589;53.636;10.012;2024-02-26T17:09:15;4.80;99.90
20858;DHT22;10589;53.636;10.012;2024-02-26T17:11:40;4.80;99.90
20858;DHT22;10589;53.636;10.012;2024-02-26T17:14:06;4.70;99.90
20858;DHT22;10589;53.636;10.012;2024-02-26T17:16:32;4.60;99.90
20858;DHT22;10589;53.636;10.012;2024-02-26T17:18:58;4.60;99.90
20858;DHT22;10589;53.636;10.012;2024-02-26T17:21:24;4.60;99.90
20858;DHT22;10589;53.636;10.012;2024-02-26T17:23:50;4.60;99.90
20858;DHT22;10589;53.636;10.012;2024-02-26T17:26:21;4.50;99.90
20858;DHT22;10589;53.636;10.012;2024-02-26T17:28:47;4.50;99.90
20858;DHT22;10589;53.636;10.012;2024-02-26T17:31:14;4.50;99.90
20858;DHT22;10589;53.636;10.012;2024-02-26T17:33:43;4.50;99.90
20858;DHT22;10589;53.636;10.012;2024-02-26T17:36:09;4.50;99.90
20858;DHT22;10589;53.636;10.012;2024-02-26T17:38:36;4.50;99.90
20858;DHT22;10589;53.636;10.012;2024-02-26T17:41:02;4.40;99.90
20858;DHT22;10589;53.636;10.012;2024-02-26T17:43:28;4.40;99.90
20858;DHT22;10589;53.636;10.012;2024-02-26T17:45:54;4.40;99.90
20858;DHT22;10589;53.636;10.012;2024-02-26T17:48:21;4.40;99.90
20858;DHT22;10589;53.636;10.012;2024-02-26T17:50:46;4.40;99.90
20858;DHT22;10589;53.636;10.012;2024-02-26T17:53:12;4.30;99.90
20858;DHT22;10589;53.636;10.012;2024-02-26T17:55:42;4.30;99.90
20858;DHT22;10589;53.636;10.012;2024-02-26T17:58:07;4.30;99.90
20858;DHT22;10589;53.636;10.012;2024-02-26T18:00:34;4.30;99.90
20858;DHT22;10589;53.636;10.012;2024-02-26T18:03:02;4.30;99.90
20858;DHT22;10589;53.636;10.012;2024-02-26T18:05:28;4.20;99.90
20858;DHT22;10589;53.636;10.012;2024-02-26T18:07:54;4.20;99.90
20858;DHT22;10589;53.636;10.012;2024-02-26T18:10:20;4.20;99.90
20858;DHT22;10589;53.636;10.012;2024-02-26T18:12:48;4.20;99.90
20858;DHT22;10589;53.636;10.012;2024-02-26T18:15:13;4.20;99.90
20858;DHT22;10589;53.636;10.012;2024-02-26T18:17:39;4.10;99.90
20858;DHT22;10589;53.636;10.012;2024-02-26T18:20:06;4.10;99.90
20858;DHT22;10589;53.636;10.012;2024-02-26T18:22:34;4.10;99.90
20858;DHT22;10589;53.636;10.012;2024-02-26T18:25:00;4.10;99.90
20858;DHT22;10589;53.636;10.012;2024-02-26T18:27:26;4.10;99.90
20858;DHT22;10589;53.636;10.012;2024-02-26T18:29:57;4.10;99.90
20858;DHT22;10589;53.636;10.012;2024-02-26T18:32:22;4.10;99.90
20858;DHT22;10589;53.636;10.012;2024-02-26T18:34:48;4.00;99.90
20858;DHT22;10589;53.636;10.012;2024-02-26T18:37:14;4.00;99.90
20858;DHT22;10589;53.636;10.012;2024-02-26T18:39:42;4.00;99.90
20858;DHT22;10589;53.636;10.012;2024-02-26T18:42:08;4.00;99.90
20858;DHT22;10589;53.636;10.012;2024-02-26T18:44:36;3.90;99.90
20858;DHT22;10589;53.636;10.012;2024-02-26T18:47:06;3.90;99.90
20858;DHT22;10589;53.636;10.012;2024-02-26T18:49:32;3.90;99.90
20858;DHT22;10589;53.636;10.012;2024-02-26T18:52:04;3.90;99.90
20858;DHT22;10589;53.636;10.012;2024-02-26T18:54:29;3.80;99.90
20858;DHT22;10589;53.636;10.012;2024-02-26T18:56:55;3.80;99.90
20858;DHT22;10589;53.636;10.012;2024-02-26T18:59:21;3.80;99.90
20858;DHT22;10589;53.636;10.012;2024-02-26T19:01:46;3.80;99.90
20858;DHT22;10589;53.636;10.012;2024-02-26T19:04:13;3.70;99.90
20858;DHT22;10589;53.636;10.012;2024-02-26T19:06:39;3.70;99.90
20858;DHT22;10589;53.636;10.012;2024-02-26T19:09:06;3.70;99.90
20858;DHT22;10589;53.636;10.012;2024-02-26T19:11:32;3.60;99.90
20858;DHT22;10589;53.636;10.012;2024-02-26T19:13:58;3.60;99.90
20858;DHT22;10589;53.636;10.012;2024-02-26T19:16:24;3.60;99.90
20858;DHT22;10589;53.636;10.012;2024-02-26T19:18:51;3.60;99.90
20858;DHT22;10589;53.636;10.012;2024-02-26T19:21:18;3.60;99.90
20858;DHT22;10589;53.636;10.012;2024-02-26T19:23:44;3.50;99.90
20858;DHT22;10589;53.636;10.012;2024-02-26T19:26:10;3.50;99.90
20858;DHT22;10589;53.636;10.012;2024-02-26T19:28:36;3.40;99.90
20858;DHT22;10589;53.636;10.012;2024-02-26T19:31:01;3.40;99.90
20858;DHT22;10589;53.636;10.012;2024-02-26T19:33:27;3.30;99.90
20858;DHT22;10589;53.636;10.012;2024-02-26T19:35:54;3.30;99.90
20858;DHT22;10589;53.636;10.012;2024-02-26T19:38:20;3.30;99.90
20858;DHT22;10589;53.636;10.012;2024-02-26T19:40:46;3.30;99.90
20858;DHT22;10589;53.636;10.012;2024-02-26T19:43:12;3.30;99.90
20858;DHT22;10589;53.636;10.012;2024-02-26T19:45:38;3.20;99.90
20858;DHT22;10589;53.636;10.012;2024-02-26T19:48:05;3.20;99.90
20858;DHT22;10589;53.636;10.012;2024-02-26T19:50:31;3.10;99.90
20858;DHT22;10589;53.636;10.012;2024-02-26T19:52:56;3.10;99.90
20858;DHT22;10589;53.636;10.012;2024-02-26T19:55:23;3.10;99.90
20858;DHT22;10589;53.636;10.012;2024-02-26T19:57:50;3.10;99.90
20858;DHT22;10589;53.636;10.012;2024-02-26T20:00:16;3.10;99.90
20858;DHT22;10589;53.636;10.012;2024-02-26T20:02:42;3.00;99.90
20858;DHT22;10589;53.636;10.012;2024-02-26T20:05:07;3.00;99.90
20858;DHT22;10589;53.636;10.012;2024-02-26T20:07:34;3.00;99.90
20858;DHT22;10589;53.636;10.012;2024-02-26T20:09:59;3.00;99.90
20858;DHT22;10589;53.636;10.012;2024-02-26T20:12:25;3.00;99.90